Time;durP1;ratioP1;P1;durP2;ratioP2;P2;SDS_P1;SDS_P2;PMS_P1;PMS_P2;Temp;Humidity;BMP_temperature;BMP_pressure;BME280_temperature;BME280_humidity;BME280_pressure;Samples;Min_cycle;Max_cycle;Signal;HPM_P1;HPM_P2
2023/12/15 00:00:23;;;;;;;13.70;10.20;;;;;;;-147.86;100.00;46095.93;105626;1257;64784;-52
2023/12/15 00:02:50;;;;;;;16.70;10.70;;;;;;;-147.86;100.00;46095.54;105604;1258;72603;-53
2023/12/15 00:05:17;;;;;;;18.00;11.50;;;;;;;-147.86;100.00;46096.71;105636;1260;60813;-50
2023/12/15 00:07:44;;;;;;;20.70;12.10;;;;;;;-147.86;100.00;46096.71;105606;1257;60258;-55
2023/12/15 00:10:12;;;;;;;18.30;12.70;;;;;;;-147.86;100.00;46098.28;105608;1257;72864;-53
2023/12/15 00:12:38;;;;;;;22.20;13.90;;;;;;;-147.86;100.00;46098.28;105601;1260;64671;-57
2023/12/15 00:15:06;;;;;;;27.80;13.90;;;;;;;-147.86;100.00;46095.93;105624;1260;72849;-48
2023/12/15 00:17:33;;;;;;;22.90;14.60;;;;;;;-147.86;100.00;46098.28;105620;1257;59746;-50
2023/12/15 00:20:00;;;;;;;27.70;15.50;;;;;;;-147.86;100.00;46100.63;105682;1260;59548;-51
2023/12/15 00:22:27;;;;;;;24.20;15.40;;;;;;;-147.86;100.00;46095.15;105662;1257;73052;-51
2023/12/15 00:24:54;;;;;;;23.10;14.70;;;;;;;-147.86;100.00;46097.11;105611;1260;63706;-54
2023/12/15 00:27:21;;;;;;;26.80;15.50;;;;;;;-147.86;100.00;46097.49;105642;1258;71427;-54
2023/12/15 00:29:48;;;;;;;27.20;16.50;;;;;;;-147.86;100.00;46097.89;105643;1260;61184;-51
2023/12/15 00:32:14;;;;;;;21.00;15.00;;;;;;;-147.86;100.00;46099.06;105714;1257;60182;-49
2023/12/15 00:34:41;;;;;;;22.40;15.20;;;;;;;-147.86;100.00;46096.71;105614;1260;73016;-54
2023/12/15 00:37:08;;;;;;;24.40;16.50;;;;;;;-147.86;100.00;46098.67;105677;1260;64700;-53
2023/12/15 00:39:36;;;;;;;24.90;15.90;;;;;;;-147.86;100.00;46097.50;105648;1257;72650;-51
2023/12/15 00:42:05;;;;;;;21.80;14.90;;;;;;;-147.86;100.00;46099.06;105614;1257;61027;-56
2023/12/15 00:44:33;;;;;;;20.90;15.10;;;;;;;-147.86;100.00;46097.10;105637;1260;59765;-53
2023/12/15 00:47:01;;;;;;;21.80;15.00;;;;;;;-147.86;100.00;46099.85;105606;1257;73057;-54
2023/12/15 00:49:28;;;;;;;25.60;14.80;;;;;;;-147.86;100.00;46098.68;105658;1260;64731;-51
2023/12/15 00:51:55;;;;;;;19.70;13.90;;;;;;;-147.86;100.00;46097.11;105619;1258;72705;-52
2023/12/15 00:54:22;;;;;;;20.10;13.00;;;;;;;-147.86;100.00;46099.45;105593;1260;61208;-54
2023/12/15 00:56:49;;;;;;;22.10;13.10;;;;;;;-147.86;100.00;46101.02;105586;1258;60067;-54
2023/12/15 00:59:16;;;;;;;19.60;12.30;;;;;;;-147.86;100.00;46102.59;105614;1256;73665;-53
2023/12/15 01:01:43;;;;;;;18.50;11.40;;;;;;;-147.86;100.00;46101.41;105586;1260;64615;-55
2023/12/15 01:04:10;;;;;;;16.40;11.80;;;;;;;-147.86;100.00;46103.76;105595;1255;72616;-55
2023/12/15 01:06:37;;;;;;;16.30;10.90;;;;;;;-147.86;100.00;46100.24;105611;1257;61152;-56
2023/12/15 01:09:04;;;;;;;19.40;10.20;;;;;;;-147.86;100.00;46102.20;105595;1257;60248;-52
2023/12/15 01:11:31;;;;;;;13.10;9.80;;;;;;;-147.86;100.00;46103.37;105724;1257;71612;-55
2023/12/15 01:13:59;;;;;;;12.70;8.50;;;;;;;-147.86;100.00;46103.37;105612;1260;64749;-49
2023/12/15 01:16:26;;;;;;;11.10;8.60;;;;;;;-147.86;100.00;46099.85;105621;1257;72487;-54
2023/12/15 01:18:54;;;;;;;10.30;7.10;;;;;;;-147.86;100.00;46102.98;105593;1260;60980;-57
2023/12/15 01:21:21;;;;;;;11.00;8.10;;;;;;;-147.86;100.00;46101.80;105635;1257;60055;-52
2023/12/15 01:23:48;;;;;;;9.40;7.40;;;;;;;-147.86;100.00;46101.41;105567;1259;73080;-51
2023/12/15 01:26:17;;;;;;;11.50;6.40;;;;;;;-147.86;100.00;46104.16;105613;1257;64633;-55
2023/12/15 01:28:44;;;;;;;10.20;7.90;;;;;;;-147.86;100.00;46104.16;105570;1257;72661;-55
2023/12/15 01:31:11;;;;;;;10.80;7.10;;;;;;;-147.86;100.00;46104.55;105580;1261;61174;-52
2023/12/15 01:33:38;;;;;;;9.00;6.40;;;;;;;-147.86;100.00;46105.73;105583;1257;59743;-50
2023/12/15 01:36:06;;;;;;;11.30;7.20;;;;;;;-147.86;100.00;46105.33;105625;1260;72976;-49
2023/12/15 01:38:33;;;;;;;15.00;7.60;;;;;;;-147.86;100.00;46107.29;105569;1261;64647;-55
2023/12/15 01:41:00;;;;;;;11.20;7.00;;;;;;;-147.86;100.00;46106.12;105562;1257;72630;-57
2023/12/15 01:43:27;;;;;;;9.80;7.30;;;;;;;-147.86;100.00;46107.29;105594;1256;61176;-57
2023/12/15 01:45:53;;;;;;;10.00;7.40;;;;;;;-147.86;100.00;46110.42;105557;1257;60297;-49
2023/12/15 01:48:31;;;;;;;10.60;7.50;;;;;;;-147.86;100.00;46110.82;105567;1261;73170;-50
2023/12/15 01:50:58;;;;;;;13.40;7.80;;;;;;;-147.86;100.00;46110.43;105549;1260;64583;-54
2023/12/15 01:53:25;;;;;;;9.40;7.70;;;;;;;-147.86;100.00;46111.60;105642;1257;72673;-51
2023/12/15 01:55:52;;;;;;;9.70;6.90;;;;;;;-147.86;100.00;46114.74;105585;1260;61133;-56
2023/12/15 01:58:19;;;;;;;9.20;6.70;;;;;;;-147.86;100.00;46115.13;105637;1257;60218;-52
2023/12/15 02:00:47;;;;;;;14.20;8.20;;;;;;;-147.86;100.00;46115.91;105562;1260;73040;-51
2023/12/15 02:03:17;;;;;;;11.60;8.50;;;;;;;-147.86;100.00;46119.05;105671;1257;64484;-57
2023/12/15 02:05:45;;;;;;;14.70;9.50;;;;;;;-147.86;100.00;46119.83;105707;1257;72639;-52
2023/12/15 02:08:12;;;;;;;15.00;8.80;;;;;;;-147.86;100.00;46119.83;105627;1260;61103;-53
2023/12/15 02:10:39;;;;;;;16.70;8.90;;;;;;;-147.86;100.00;46122.57;105650;1257;60459;-53
2023/12/15 02:13:06;;;;;;;17.40;9.90;;;;;;;-147.86;100.00;46123.36;105648;1257;73776;-55
2023/12/15 02:15:33;;;;;;;21.50;10.40;;;;;;;-147.86;100.00;46125.32;105640;1260;64624;-55
2023/12/15 02:18:00;;;;;;;16.70;9.60;;;;;;;-147.86;100.00;46125.71;105645;1257;71270;-53
2023/12/15 02:20:27;;;;;;;26.10;11.50;;;;;;;-147.86;100.00;46130.80;105607;1261;61048;-55
2023/12/15 02:22:57;;;;;;;18.50;10.50;;;;;;;-147.86;100.00;46129.63;105677;1257;60473;-54
2023/12/15 02:25:24;;;;;;;22.80;10.50;;;;;;;-147.86;100.00;46132.77;105668;1257;73845;-49
2023/12/15 02:27:51;;;;;;;22.20;9.60;;;;;;;-147.86;100.00;46134.73;105606;1260;63243;-50
2023/12/15 02:30:18;;;;;;;18.10;9.40;;;;;;;-147.86;100.00;46135.90;105637;1257;72507;-54
2023/12/15 02:32:45;;;;;;;17.50;9.70;;;;;;;-147.86;100.00;46138.25;105629;1260;61108;-48
2023/12/15 02:35:14;;;;;;;14.00;8.10;;;;;;;-147.86;100.00;46139.43;105638;1256;60466;-47
2023/12/15 02:37:40;;;;;;;17.50;8.60;;;;;;;-147.86;100.00;46141.39;105675;1260;72713;-52
2023/12/15 02:40:08;;;;;;;17.90;9.70;;;;;;;-147.86;100.00;46142.56;105616;1260;64674;-53
2023/12/15 02:42:35;;;;;;;16.10;9.60;;;;;;;-147.86;100.00;46146.09;105607;1256;72702;-48
2023/12/15 02:45:02;;;;;;;18.30;9.70;;;;;;;-147.86;100.00;46145.70;105604;1260;61147;-52
2023/12/15 02:47:30;;;;;;;20.20;10.20;;;;;;;-147.86;100.00;46149.22;105670;1257;60875;-50
2023/12/15 02:49:57;;;;;;;18.40;9.10;;;;;;;-147.86;100.00;46148.82;105676;1260;73787;-51
2023/12/15 02:52:24;;;;;;;17.30;9.10;;;;;;;-147.86;100.00;46155.10;105626;1260;64651;-56
2023/12/15 02:54:51;;;;;;;14.30;8.50;;;;;;;-147.86;100.00;46157.06;105632;1257;70194;-46
2023/12/15 02:57:17;;;;;;;18.60;8.80;;;;;;;-147.86;100.00;46159.02;105622;1260;61283;-56
2023/12/15 02:59:44;;;;;;;17.20;8.60;;;;;;;-147.86;100.00;46161.37;105600;1257;60491;-52
2023/12/15 03:02:11;;;;;;;10.70;7.50;;;;;;;-147.86;100.00;46163.33;105714;1257;73926;-53
2023/12/15 03:04:38;;;;;;;15.60;7.80;;;;;;;-147.86;100.00;46164.51;105601;1260;63633;-52
2023/12/15 03:07:05;;;;;;;14.60;7.20;;;;;;;-147.86;100.00;46168.42;105672;1257;72675;-45
2023/12/15 03:09:31;;;;;;;10.10;4.50;;;;;;;-147.86;100.00;46168.42;105577;1260;60348;-50
2023/12/15 03:11:58;;;;;;;13.00;6.60;;;;;;;-147.86;100.00;46175.08;105587;1257;60449;-53
2023/12/15 03:14:25;;;;;;;9.60;6.00;;;;;;;-147.86;100.00;46178.22;105614;1259;73800;-47
2023/12/15 03:16:52;;;;;;;9.60;5.60;;;;;;;-147.86;100.00;46179.00;105695;1260;64750;-49
2023/12/15 03:19:19;;;;;;;11.90;5.60;;;;;;;-147.86;100.00;46182.92;105618;1256;72658;-56
2023/12/15 03:21:46;;;;;;;7.60;3.60;;;;;;;-147.86;100.00;46184.10;105684;1260;61110;-52
2023/12/15 03:24:13;;;;;;;7.30;4.20;;;;;;;-147.86;100.00;46192.32;105655;1257;60459;-56
2023/12/15 03:26:40;;;;;;;8.70;5.60;;;;;;;-147.86;100.00;46197.81;105610;1260;73696;-55
2023/12/15 03:29:07;;;;;;;12.80;5.40;;;;;;;-147.86;100.00;46196.25;105639;1260;64673;-52
2023/12/15 03:31:34;;;;;;;9.80;5.40;;;;;;;-147.86;100.00;46204.87;105667;1257;72625;-51
2023/12/15 03:34:01;;;;;;;10.00;5.30;;;;;;;-147.86;100.00;46205.65;105668;1260;61161;-53
2023/12/15 03:36:28;;;;;;;8.50;5.40;;;;;;;-147.86;100.00;46212.70;105614;1256;60446;-51
2023/12/15 03:38:55;;;;;;;13.10;6.00;;;;;;;-147.86;100.00;46217.02;105625;1258;73784;-52
2023/12/15 03:41:22;;;;;;;7.20;4.50;;;;;;;-147.86;100.00;46218.58;105616;1259;64535;-52
2023/12/15 03:43:49;;;;;;;9.00;5.60;;;;;;;-147.86;100.00;46223.29;105603;1257;72661;-50
2023/12/15 03:46:16;;;;;;;13.70;6.00;;;;;;;-147.86;100.00;46227.60;105594;1260;61210;-50
2023/12/15 03:48:43;;;;;;;9.40;5.70;;;;;;;-147.86;100.00;46230.34;105611;1256;60479;-51
2023/12/15 03:51:11;;;;;;;9.60;5.80;;;;;;;-147.86;100.00;46234.65;105632;1256;73816;-53
2023/12/15 03:53:38;;;;;;;10.70;6.70;;;;;;;-147.86;100.00;46235.43;105664;1260;64462;-53
2023/12/15 03:56:05;;;;;;;11.10;5.70;;;;;;;-147.86;100.00;46238.96;105574;1257;72607;-51
2023/12/15 03:58:32;;;;;;;23.10;6.70;;;;;;;-147.86;100.00;46243.27;105635;1257;60457;-54
2023/12/15 04:00:59;;;;;;;7.40;4.90;;;;;;;-147.86;100.00;46243.66;105548;1257;60489;-54
2023/12/15 04:03:27;;;;;;;14.20;5.00;;;;;;;-147.86;100.00;46246.01;105607;1260;72802;-52
2023/12/15 04:05:54;;;;;;;17.00;5.60;;;;;;;-147.86;100.00;46247.98;105733;1260;64866;-63
2023/12/15 04:08:21;;;;;;;12.10;5.60;;;;;;;-147.86;100.00;46249.15;105614;1257;72639;-54
2023/12/15 04:10:48;;;;;;;14.60;6.20;;;;;;;-147.86;100.00;46248.36;105937;1256;61546;-54
2023/12/15 04:13:14;;;;;;;8.70;4.90;;;;;;;-147.86;100.00;46248.76;105949;1253;60450;-55
2023/12/15 04:15:42;;;;;;;12.70;6.00;;;;;;;-147.86;100.00;46249.54;105940;1252;73778;-53
2023/12/15 04:18:08;;;;;;;13.90;6.20;;;;;;;-147.86;100.00;46246.80;105921;1256;64594;-51
2023/12/15 04:20:36;;;;;;;10.10;4.70;;;;;;;-147.86;100.00;46247.20;105910;1254;72602;-53
2023/12/15 04:23:03;;;;;;;10.50;5.20;;;;;;;-147.86;100.00;46246.41;105972;1256;60967;-52
2023/12/15 04:25:31;;;;;;;16.30;6.40;;;;;;;-147.86;100.00;46247.59;105954;1253;60466;-54
2023/12/15 04:27:58;;;;;;;11.60;6.10;;;;;;;-147.86;100.00;46244.45;105922;1256;73680;-49
2023/12/15 04:30:25;;;;;;;11.30;5.50;;;;;;;-147.86;100.00;46245.63;105888;1257;64760;-49
2023/12/15 04:32:52;;;;;;;11.90;5.50;;;;;;;-147.86;100.00;46242.49;105866;1254;72345;-57
2023/12/15 04:35:19;;;;;;;12.00;6.20;;;;;;;-147.86;100.00;46242.09;105882;1256;61136;-52
2023/12/15 04:37:46;;;;;;;10.40;5.80;;;;;;;-147.86;100.00;46240.92;105934;1257;60342;-58
2023/12/15 04:40:13;;;;;;;17.20;6.10;;;;;;;-147.86;100.00;46241.31;105932;1256;73874;-53
2023/12/15 04:42:40;;;;;;;10.30;5.90;;;;;;;-147.86;100.00;46239.74;105874;1254;64738;-49
2023/12/15 04:45:08;;;;;;;12.60;6.10;;;;;;;-147.86;100.00;46238.18;105913;1254;72494;-54
2023/12/15 04:47:35;;;;;;;9.30;6.00;;;;;;;-147.86;100.00;46237.79;105868;1256;60356;-60
2023/12/15 04:50:03;;;;;;;11.70;4.80;;;;;;;-147.86;100.00;46236.22;105930;1254;60379;-44
2023/12/15 04:52:30;;;;;;;14.40;5.40;;;;;;;-147.86;100.00;46235.43;105885;1254;73774;-53
2023/12/15 04:54:57;;;;;;;14.30;6.00;;;;;;;-147.86;100.00;46233.87;105932;1254;64590;-53
2023/12/15 04:57:24;;;;;;;21.50;6.70;;;;;;;-147.86;100.00;46233.08;105940;1254;72699;-53
2023/12/15 04:59:51;;;;;;;17.10;5.90;;;;;;;-147.86;100.00;46232.69;105927;1256;61148;-56
2023/12/15 05:02:18;;;;;;;15.90;5.40;;;;;;;-147.86;100.00;46231.51;105898;1252;60447;-52
2023/12/15 05:04:45;;;;;;;21.60;5.90;;;;;;;-147.86;100.00;46232.69;105778;1254;73800;-49
2023/12/15 05:07:12;;;;;;;10.50;4.30;;;;;;;-147.86;100.00;46231.13;105664;1257;63559;-49
2023/12/15 05:09:39;;;;;;;11.70;5.90;;;;;;;-147.86;100.00;46229.16;105708;1254;71528;-51
2023/12/15 05:12:08;;;;;;;12.00;5.20;;;;;;;-147.86;100.00;46229.55;105832;1252;60934;-48
2023/12/15 05:14:36;;;;;;;14.30;4.70;;;;;;;-147.86;100.00;46227.99;105952;1252;60457;-54
2023/12/15 05:17:03;;;;;;;17.60;5.00;;;;;;;-147.86;100.00;46220.93;105896;1253;73758;-53
2023/12/15 05:19:30;;;;;;;11.00;5.50;;;;;;;-147.86;100.00;46220.93;105957;1256;64665;-53
2023/12/15 05:21:57;;;;;;;16.80;6.60;;;;;;;-147.86;100.00;46217.01;105956;1254;72591;-49
2023/12/15 05:24:25;;;;;;;13.50;4.80;;;;;;;-147.86;100.00;46211.53;105872;1256;60986;-49
2023/12/15 05:26:51;;;;;;;17.60;5.60;;;;;;;-147.86;100.00;46205.65;105869;1253;60434;-53
2023/12/15 05:29:18;;;;;;;9.80;5.00;;;;;;;-147.86;100.00;46205.65;105888;1256;73797;-48
2023/12/15 05:31:45;;;;;;;11.60;5.30;;;;;;;-147.86;100.00;46202.52;105863;1257;65430;-44
2023/12/15 05:34:13;;;;;;;12.10;5.60;;;;;;;-147.86;100.00;46197.03;105887;1252;72614;-43
2023/12/15 05:36:40;;;;;;;16.10;6.60;;;;;;;-147.86;100.00;46188.02;105923;1257;60428;-41
2023/12/15 05:39:08;;;;;;;13.90;4.40;;;;;;;-147.86;100.00;46181.75;105971;1253;60537;-41
2023/12/15 05:41:41;;;;;;;23.60;6.30;;;;;;;-147.86;100.00;46179.79;105893;1256;73794;-40
2023/12/15 05:44:11;;;;;;;13.20;5.20;;;;;;;-147.86;100.00;46175.09;105934;1254;64477;-42
2023/12/15 05:46:41;;;;;;;16.50;6.90;;;;;;;-147.86;100.00;46172.74;105880;1257;72556;-41
2023/12/15 05:49:10;;;;;;;22.30;5.60;;;;;;;-147.86;100.00;46170.38;105912;1256;61365;-41
2023/12/15 05:51:38;;;;;;;10.10;5.50;;;;;;;-147.86;100.00;46166.47;105948;1256;60411;-42
2023/12/15 05:54:06;;;;;;;23.00;5.70;;;;;;;-147.86;100.00;46164.90;105914;1254;73750;-42
2023/12/15 05:56:33;;;;;;;15.90;5.20;;;;;;;-147.86;100.00;46166.07;105974;1253;65489;-44
2023/12/15 05:58:59;;;;;;;15.70;5.50;;;;;;;-147.86;100.00;46165.29;105914;1255;71586;-44
2023/12/15 06:01:27;;;;;;;13.50;5.10;;;;;;;-147.86;100.00;46165.29;105968;1256;61168;-42
2023/12/15 06:03:54;;;;;;;12.30;4.50;;;;;;;-147.86;100.00;46165.29;105952;1253;60450;-45
2023/12/15 06:06:21;;;;;;;16.70;5.90;;;;;;;-147.86;100.00;46164.51;105903;1252;73798;-39
2023/12/15 06:08:48;;;;;;;16.30;4.90;;;;;;;-147.86;100.00;46164.11;105941;1256;65496;-44
2023/12/15 06:11:15;;;;;;;12.50;5.80;;;;;;;-147.86;100.00;46165.68;105916;1252;72652;-44
2023/12/15 06:13:42;;;;;;;9.20;4.20;;;;;;;-147.86;100.00;46164.90;105892;1256;61109;-40
2023/12/15 06:16:19;;;;;;;11.60;3.90;;;;;;;-147.86;100.00;46163.72;105899;1252;60475;-41
2023/12/15 06:18:47;;;;;;;10.10;4.60;;;;;;;-147.86;100.00;46162.16;105957;1254;73853;-43
2023/12/15 06:21:22;;;;;;;16.40;5.40;;;;;;;-147.86;100.00;46162.15;105924;1254;65249;-42
2023/12/15 06:23:49;;;;;;;23.90;7.20;;;;;;;-147.86;100.00;46160.59;105924;1256;72424;-45
2023/12/15 06:26:26;;;;;;;14.80;5.50;;;;;;;-147.86;100.00;46155.10;105899;1254;61142;-42
2023/12/15 06:28:53;;;;;;;15.50;5.20;;;;;;;-147.86;100.00;46153.53;105908;1252;60422;-39
2023/12/15 06:31:21;;;;;;;16.40;6.00;;;;;;;-147.86;100.00;46152.75;105996;1256;73671;-42
2023/12/15 06:33:48;;;;;;;15.20;4.80;;;;;;;-147.86;100.00;46150.79;105917;1256;65418;-41
2023/12/15 06:36:16;;;;;;;19.30;6.50;;;;;;;-147.86;100.00;46147.26;105836;1253;72682;-45
2023/12/15 06:38:44;;;;;;;18.00;4.80;;;;;;;-147.86;100.00;46144.91;105897;1252;60485;-43
2023/12/15 06:41:12;;;;;;;16.10;4.50;;;;;;;-147.86;100.00;46145.70;105863;1254;60409;-42
2023/12/15 06:43:42;;;;;;;23.20;6.00;;;;;;;-147.86;100.00;46139.43;105858;1252;73903;-41
2023/12/15 06:46:09;;;;;;;15.30;5.30;;;;;;;-147.86;100.00;46137.86;105921;1256;65330;-40
2023/12/15 06:48:36;;;;;;;25.80;6.00;;;;;;;-147.86;100.00;46137.86;105929;1254;72577;-43
2023/12/15 06:51:05;;;;;;;15.10;6.60;;;;;;;-147.86;100.00;46138.25;105851;1256;61010;-42
2023/12/15 06:53:31;;;;;;;17.70;6.10;;;;;;;-147.86;100.00;46139.43;105930;1256;60437;-41
2023/12/15 06:55:59;;;;;;;20.40;6.40;;;;;;;-147.86;100.00;46139.04;105913;1254;75626;-43
2023/12/15 06:58:26;;;;;;;19.50;6.20;;;;;;;-147.86;100.00;46140.60;105885;1256;65500;-44
2023/12/15 07:00:53;;;;;;;15.80;5.90;;;;;;;-147.86;100.00;46141.77;105861;1254;72459;-45
2023/12/15 07:03:20;;;;;;;14.60;5.50;;;;;;;-147.86;100.00;46144.13;105908;1257;60770;-44
2023/12/15 07:05:47;;;;;;;31.70;6.70;;;;;;;-147.86;100.00;46141.39;105860;1252;60417;-41
2023/12/15 07:08:15;;;;;;;18.10;6.00;;;;;;;-147.86;100.00;46143.74;105893;1254;73816;-43
2023/12/15 07:10:41;;;;;;;19.20;6.00;;;;;;;-147.86;100.00;46145.70;105870;1254;65524;-44
2023/12/15 07:13:08;;;;;;;36.60;6.90;;;;;;;-147.86;100.00;46146.09;105864;1254;72358;-41
2023/12/15 07:15:35;;;;;;;13.60;5.30;;;;;;;-147.86;100.00;46146.09;105903;1256;61179;-42
2023/12/15 07:18:02;;;;;;;26.10;6.60;;;;;;;-147.86;100.00;46147.27;105909;1252;60443;-43
2023/12/15 07:20:29;;;;;;;20.10;5.60;;;;;;;-147.86;100.00;46147.26;105895;1252;73812;-41
2023/12/15 07:22:57;;;;;;;19.00;5.70;;;;;;;-147.86;100.00;46147.66;105930;1256;65530;-45
2023/12/15 07:25:24;;;;;;;12.40;4.80;;;;;;;-147.86;100.00;46146.09;105943;1254;72686;-42
2023/12/15 07:27:53;;;;;;;14.50;5.10;;;;;;;-147.86;100.00;46144.91;105893;1256;61130;-41
2023/12/15 07:30:21;;;;;;;20.20;5.00;;;;;;;-147.86;100.00;46144.52;105935;1252;60746;-43
2023/12/15 07:32:48;;;;;;;21.30;6.30;;;;;;;-147.86;100.00;46142.17;105968;1254;73810;-44
2023/12/15 07:35:15;;;;;;;16.80;5.10;;;;;;;-147.86;100.00;46140.99;105853;1253;65415;-41
2023/12/15 07:37:57;;;;;;;14.60;4.80;;;;;;;-147.86;100.00;46139.43;105915;1254;73830;-40
2023/12/15 07:40:25;;;;;;;19.60;4.90;;;;;;;-147.86;100.00;46139.43;105866;1254;61053;-44
2023/12/15 07:42:52;;;;;;;24.90;5.40;;;;;;;-147.86;100.00;46131.59;105987;1253;60801;-43
2023/12/15 07:45:18;;;;;;;16.60;4.00;;;;;;;-147.86;100.00;46131.59;105828;1257;73714;-40
2023/12/15 07:47:45;;;;;;;20.20;4.40;;;;;;;-147.86;100.00;46125.71;105945;1256;65412;-44
2023/12/15 07:50:13;;;;;;;14.60;3.80;;;;;;;-147.86;100.00;46121.79;105822;1254;72635;-42
2023/12/15 07:52:40;;;;;;;20.20;4.60;;;;;;;-147.86;100.00;46118.27;105907;1253;60364;-40
2023/12/15 07:55:07;;;;;;;15.70;5.20;;;;;;;-147.86;100.00;46116.30;105920;1254;60427;-45
2023/12/15 07:57:34;;;;;;;25.10;4.30;;;;;;;-147.86;100.00;46112.77;105899;1254;72739;-40
2023/12/15 08:00:02;;;;;;;20.90;4.60;;;;;;;-147.86;100.00;46114.74;105883;1254;65430;-41
2023/12/15 08:02:38;;;;;;;26.80;6.00;;;;;;;-147.86;100.00;46115.91;105965;1254;72528;-43
2023/12/15 08:05:06;;;;;;;22.00;5.20;;;;;;;-147.86;100.00;46114.74;105911;1256;61724;-42
2023/12/15 08:07:33;;;;;;;29.20;4.70;;;;;;;-147.86;100.00;46109.64;105938;1253;60508;-40
2023/12/15 08:10:00;;;;;;;23.80;4.50;;;;;;;-147.86;100.00;46108.86;105868;1254;73649;-42
2023/12/15 08:12:27;;;;;;;30.40;5.40;;;;;;;-147.86;100.00;46108.86;105959;1254;65350;-39
2023/12/15 08:14:54;;;;;;;19.80;4.70;;;;;;;-147.86;100.00;46107.29;105883;1253;73115;-41
2023/12/15 08:17:21;;;;;;;25.20;4.80;;;;;;;-147.86;100.00;46107.68;106022;1254;60339;-40
2023/12/15 08:19:49;;;;;;;29.20;5.20;;;;;;;-147.86;100.00;46105.73;105937;1254;60540;-40
2023/12/15 08:22:15;;;;;;;17.10;4.80;;;;;;;-147.86;100.00;46106.51;105907;1254;73888;-41
2023/12/15 08:24:43;;;;;;;27.70;3.60;;;;;;;-147.86;100.00;46106.90;105859;1254;65330;-42
2023/12/15 08:27:09;;;;;;;27.20;4.90;;;;;;;-147.86;100.00;46107.29;105889;1256;72547;-44
2023/12/15 08:29:36;;;;;;;25.60;5.30;;;;;;;-147.86;100.00;46108.47;105882;1256;61020;-43
2023/12/15 08:32:03;;;;;;;9.40;3.40;;;;;;;-147.86;100.00;46105.73;105975;1254;60469;-41
2023/12/15 08:34:31;;;;;;;18.40;4.80;;;;;;;-147.86;100.00;46109.25;105898;1256;73844;-43
2023/12/15 08:36:58;;;;;;;23.50;3.40;;;;;;;-147.86;100.00;46106.90;105954;1257;65689;-45
2023/12/15 08:39:25;;;;;;;7.30;3.10;;;;;;;-147.86;100.00;46108.86;105869;1254;72645;-42
2023/12/15 08:41:51;;;;;;;17.70;3.00;;;;;;;-147.86;100.00;46107.68;106014;1254;61014;-41
2023/12/15 08:44:18;;;;;;;20.70;4.40;;;;;;;-147.86;100.00;46106.90;105893;1254;60524;-42
2023/12/15 08:46:58;;;;;;;15.90;2.80;;;;;;;-147.86;100.00;46105.33;105921;1256;73797;-42
2023/12/15 08:49:24;;;;;;;26.50;3.70;;;;;;;-147.86;100.00;46104.16;105910;1256;65376;-42
2023/12/15 08:51:52;;;;;;;15.20;2.60;;;;;;;-147.86;100.00;46108.46;105883;1252;72596;-41
2023/12/15 08:54:18;;;;;;;20.60;4.00;;;;;;;-147.86;100.00;46104.95;105900;1254;61095;-40
2023/12/15 08:56:45;;;;;;;26.30;4.30;;;;;;;-147.86;100.00;46106.90;105883;1252;60530;-41
2023/12/15 08:59:12;;;;;;;21.60;5.30;;;;;;;-147.86;100.00;46105.73;105916;1253;72867;-43
2023/12/15 09:01:39;;;;;;;28.70;3.80;;;;;;;-147.86;100.00;46108.07;105895;1256;65377;-44
2023/12/15 09:04:06;;;;;;;27.30;6.40;;;;;;;-147.86;100.00;46107.29;105965;1254;73016;-41
2023/12/15 09:06:33;;;;;;;22.90;3.20;;;;;;;-147.86;100.00;46107.29;105796;1259;61116;-43
2023/12/15 09:09:10;;;;;;;7.30;2.60;;;;;;;-147.86;100.00;46110.82;105757;1259;60457;-43
2023/12/15 09:11:37;;;;;;;19.60;3.50;;;;;;;-147.86;100.00;46108.86;105800;1257;73853;-44
2023/12/15 09:14:04;;;;;;;37.70;5.30;;;;;;;-147.86;100.00;46107.29;105781;1257;65542;-42
2023/12/15 09:16:31;;;;;;;8.10;3.30;;;;;;;-147.86;100.00;46108.47;105748;1254;72717;-41
2023/12/15 09:18:58;;;;;;;25.50;5.10;;;;;;;-147.86;100.00;46110.82;105806;1257;62844;-43
2023/12/15 09:21:26;;;;;;;17.10;3.60;;;;;;;-147.86;100.00;46109.64;105769;1254;60918;-40
2023/12/15 09:23:56;;;;;;;19.30;4.20;;;;;;;-147.86;100.00;46110.82;105812;1258;73758;-40
2023/12/15 09:26:23;;;;;;;34.90;4.30;;;;;;;-147.86;100.00;46111.21;105829;1253;67473;-41
2023/12/15 09:28:50;;;;;;;22.00;4.30;;;;;;;-147.86;100.00;46109.64;105825;1254;72404;-44
2023/12/15 09:31:18;;;;;;;18.00;3.60;;;;;;;-147.86;100.00;46110.43;105828;1258;62492;-43
2023/12/15 09:33:45;;;;;;;26.10;3.90;;;;;;;-147.86;100.00;46114.35;105797;1254;61980;-42
2023/12/15 09:36:13;;;;;;;31.30;3.90;;;;;;;-147.86;100.00;46115.52;105809;1254;73791;-43
2023/12/15 09:38:40;;;;;;;30.60;4.80;;;;;;;-147.86;100.00;46112.39;105828;1254;66183;-41
2023/12/15 09:41:07;;;;;;;16.40;4.90;;;;;;;-147.86;100.00;46109.25;105784;1254;72498;-42
2023/12/15 09:43:35;;;;;;;16.20;4.00;;;;;;;-147.86;100.00;46109.25;105835;1254;60449;-41
2023/12/15 09:46:02;;;;;;;23.30;4.00;;;;;;;-147.86;100.00;46111.21;105756;1253;60517;-45
2023/12/15 09:48:29;;;;;;;33.00;6.40;;;;;;;-147.86;100.00;46111.21;105844;1255;73932;-45
2023/12/15 09:50:56;;;;;;;16.40;4.70;;;;;;;-147.86;100.00;46112.39;105683;1262;65357;-42
2023/12/15 09:53:24;;;;;;;27.80;5.10;;;;;;;-147.86;100.00;46113.17;105826;1254;72732;-44
2023/12/15 09:55:51;;;;;;;25.50;4.10;;;;;;;-147.86;100.00;46107.69;105688;1261;62860;-40
2023/12/15 09:58:18;;;;;;;33.30;4.80;;;;;;;-147.86;100.00;46110.82;105698;1254;60632;-43
2023/12/15 10:00:45;;;;;;;30.50;4.70;;;;;;;-147.86;100.00;46108.86;105736;1259;73789;-40
2023/12/15 10:03:14;;;;;;;22.10;4.70;;;;;;;-147.86;100.00;46110.03;105821;1259;65435;-42
2023/12/15 10:05:41;;;;;;;20.80;4.40;;;;;;;-147.86;100.00;46107.29;105831;1254;74379;-41
2023/12/15 10:08:09;;;;;;;29.80;4.90;;;;;;;-147.86;100.00;46107.29;105822;1257;63063;-45
2023/12/15 10:10:36;;;;;;;29.80;5.50;;;;;;;-147.86;100.00;46107.69;105824;1254;61849;-42
2023/12/15 10:13:04;;;;;;;26.70;4.30;;;;;;;-147.86;100.00;46106.12;105606;1254;289639;-44
2023/12/15 10:15:30;;;;;;;31.30;6.10;;;;;;;-147.86;100.00;46107.29;105717;1254;65364;-42
2023/12/15 10:19:03;;;;;;;;;;;;;;;-147.86;100.00;46029.71;102431;1292;600816;-42
2023/12/15 10:21:32;;;;;;;23.50;4.30;;;;;;;-147.86;100.00;46057.52;105020;1270;63095;-45
2023/12/15 10:24:16;;;;;;;21.60;4.20;;;;;;;-147.86;100.00;46067.71;105011;1266;62154;-43
2023/12/15 10:26:43;;;;;;;30.70;4.70;;;;;;;-147.86;100.00;46078.69;104973;1266;72138;-41
2023/12/15 10:29:10;;;;;;;20.90;4.60;;;;;;;-147.86;100.00;46084.17;104956;1265;66126;-42
2023/12/15 10:31:38;;;;;;;33.50;5.20;;;;;;;-147.86;100.00;46087.70;104734;1266;366081;-43
2023/12/15 10:34:05;;;;;;;27.10;4.70;;;;;;;-147.86;100.00;46088.88;105193;1267;62034;-43
2023/12/15 10:36:35;;;;;;;25.20;5.10;;;;;;;-147.86;100.00;46089.66;105194;1262;61206;-42
2023/12/15 10:39:03;;;;;;;24.80;4.90;;;;;;;-147.86;100.00;46093.97;105048;1263;72778;-41
2023/12/15 10:41:30;;;;;;;15.00;4.30;;;;;;;-147.86;100.00;46095.14;105185;1263;64095;-45
2023/12/15 10:44:01;;;;;;;28.40;4.20;;;;;;;-147.86;100.00;46097.49;105177;1262;71743;-43
2023/12/15 10:46:29;;;;;;;45.50;4.90;;;;;;;-147.86;100.00;46097.11;105218;1265;62962;-46
2023/12/15 10:48:56;;;;;;;28.20;4.80;;;;;;;-147.86;100.00;46097.49;104832;1264;61860;-44
2023/12/15 10:51:24;;;;;;;32.90;5.00;;;;;;;-147.86;100.00;46094.75;104827;1266;72985;-43
2023/12/15 10:53:56;;;;;;;23.10;4.20;;;;;;;-147.86;100.00;46095.15;104884;1270;67356;-43
2023/12/15 10:56:26;;;;;;;23.20;3.40;;;;;;;-147.86;100.00;46099.06;105096;1264;74031;-45